Time,TemperatureF,DewpointF,PressureIn,WindDirection,WindDirectionDegrees,WindSpeedMPH,WindSpeedGustMPH,Humidity,HourlyPrecipIn,Conditions,Clouds,dailyrainin,SoftwareType,DateUTC
2013-10-15 00:00:00,63.0,61.2,30.12,East,88,0.0,7.0,94,0.00,,---,0.00,VWS V14.01,2013-10-15 04:00:00,
2013-10-15 00:06:00,63.2,61.0,30.11,SE,143,1.0,7.0,93,0.00,,,0.01,weatherlink.com 1.10,2013-10-15 04:06:00,
2013-10-15 00:22:00,63.0,61.0,30.12,SE,141,1.0,5.0,94,0.00,,,0.01,weatherlink.com 1.10,2013-10-15 04:22:00,
2013-10-15 00:39:00,63.0,61.0,30.11,SE,136,2.0,7.0,94,0.00,,,0.01,weatherlink.com 1.10,2013-10-15 04:39:00,
2013-10-15 00:55:00,63.0,61.0,30.11,ESE,123,1.0,6.0,94,0.00,,,0.01,weatherlink.com 1.10,2013-10-15 04:55:00,
2013-10-15 01:00:00,63.0,61.2,30.12,East,88,0.0,7.0,94,0.00,,---,0.00,VWS V14.01,2013-10-15 05:00:00,
2013-10-15 01:12:00,63.0,61.0,30.12,NE,34,4.0,5.0,94,0.00,,,0.01,weatherlink.com 1.10,2013-10-15 05:12:00,
2013-10-15 01:28:00,62.9,61.0,30.11,ESE,107,0.0,5.0,94,0.00,,,0.01,weatherlink.com 1.10,2013-10-15 05:28:00,
2013-10-15 01:45:00,63.0,61.0,30.12,NNE,28,3.0,4.0,94,0.00,,,0.00,weatherlink.com 1.10,2013-10-15 05:45:00,
2013-10-15 02:00:00,62.1,60.1,30.09,ENE,61,4.0,9.0,93,0.00,,---,0.00,VWS V14.01,2013-10-15 06:00:00,
2013-10-15 02:02:00,63.0,61.0,30.11,ESE,117,3.0,5.0,93,0.00,,,0.00,weatherlink.com 1.10,2013-10-15 06:02:00,
2013-10-15 02:17:00,63.0,61.0,30.11,ESE,111,0.0,4.0,93,0.00,,,0.00,weatherlink.com 1.10,2013-10-15 06:17:00,
2013-10-15 02:35:00,63.0,61.0,30.12,ESE,122,1.0,5.0,93,0.00,,,0.00,weatherlink.com 1.10,2013-10-15 06:35:00,
2013-10-15 02:51:00,62.9,61.0,30.11,ESE,109,2.0,8.0,93,0.00,,,0.00,weatherlink.com 1.10,2013-10-15 06:51:00,
2013-10-15 03:00:00,62.1,60.1,30.09,ENE,61,4.0,9.0,93,0.00,,---,0.00,VWS V14.01,2013-10-15 07:00:00,
2013-10-15 03:07:00,62.7,61.0,30.11,East,81,3.0,8.0,93,0.00,,,0.00,weatherlink.com 1.10,2013-10-15 07:07:00,
2013-10-15 03:24:00,62.5,61.0,30.10,ESE,115,2.0,9.0,93,0.00,,,0.00,weatherlink.com 1.10,2013-10-15 07:24:00,
2013-10-15 03:40:00,62.2,60.0,30.09,ENE,66,0.0,8.0,93,0.00,,,0.00,weatherlink.com 1.10,2013-10-15 07:40:00,
2013-10-15 03:56:00,61.8,60.0,30.08,ENE,67,2.0,5.0,93,0.00,,,0.00,weatherlink.com 1.10,2013-10-15 07:56:00,
2013-10-15 04:00:00,61.1,59.4,30.10,NE,44,1.0,7.0,94,0.00,,---,0.00,VWS V14.01,2013-10-15 08:00:00,
2013-10-15 04:13:00,61.4,60.0,30.09,East,95,0.0,4.0,94,0.00,,,0.00,weatherlink.com 1.10,2013-10-15 08:13:00,
2013-10-15 04:29:00,61.2,59.0,30.08,NE,52,1.0,7.0,93,0.00,,,0.00,weatherlink.com 1.10,2013-10-15 08:29:00,
2013-10-15 04:46:00,61.0,59.0,30.09,East,82,2.0,5.0,93,0.00,,,0.00,weatherlink.com 1.10,2013-10-15 08:46:00,
2013-10-15 05:00:00,61.1,59.4,30.10,NE,44,1.0,7.0,94,0.00,,---,0.00,VWS V14.01,2013-10-15 09:00:00,
2013-10-15 05:03:00,61.1,59.0,30.10,NE,46,1.0,7.0,94,0.00,,,0.00,weatherlink.com 1.10,2013-10-15 09:03:00,
2013-10-15 05:19:00,61.1,59.0,30.10,ENE,71,0.0,3.0,94,0.00,,,0.00,weatherlink.com 1.10,2013-10-15 09:19:00,
2013-10-15 05:35:00,61.1,59.0,30.11,East,87,0.0,3.0,94,0.00,,,0.00,weatherlink.com 1.10,2013-10-15 09:35:00,
2013-10-15 05:52:00,61.1,59.0,30.10,NE,53,2.0,4.0,94,0.00,,,0.00,weatherlink.com 1.10,2013-10-15 09:52:00,
2013-10-15 06:00:00,60.0,58.6,30.10,NE,45,1.0,8.0,95,0.00,,---,0.00,VWS V14.01,2013-10-15 10:00:00,
2013-10-15 06:08:00,61.0,59.0,30.10,East,97,0.0,7.0,94,0.00,,,0.00,weatherlink.com 1.10,2013-10-15 10:08:00,
2013-10-15 06:24:00,60.7,59.0,30.10,ENE,71,4.0,5.0,94,0.00,,,0.00,weatherlink.com 1.10,2013-10-15 10:24:00,
2013-10-15 06:41:00,60.5,59.0,30.10,ENE,78,2.0,7.0,95,0.00,,,0.00,weatherlink.com 1.10,2013-10-15 10:41:00,
2013-10-15 06:57:00,60.4,59.0,30.09,NNE,15,1.0,8.0,95,0.00,,,0.00,weatherlink.com 1.10,2013-10-15 10:57:00,
2013-10-15 07:00:00,60.0,58.6,30.10,NE,45,1.0,8.0,95,0.00,,---,0.00,VWS V14.01,2013-10-15 11:00:00,
2013-10-15 07:14:00,60.2,59.0,30.10,NE,36,1.0,3.0,95,0.00,,,0.00,weatherlink.com 1.10,2013-10-15 11:14:00,
2013-10-15 07:30:00,60.1,59.0,30.10,ENE,59,1.0,2.0,95,0.00,,,0.00,weatherlink.com 1.10,2013-10-15 11:30:00,
2013-10-15 07:46:00,59.9,59.0,30.10,ENE,65,2.0,6.0,95,0.00,,,0.00,weatherlink.com 1.10,2013-10-15 11:46:00,
2013-10-15 08:00:00,61.2,57.9,30.12,ESE,114,2.0,7.0,89,0.00,,---,0.00,VWS V14.01,2013-10-15 12:00:00,
2013-10-15 08:04:00,59.6,58.0,30.10,NE,55,1.0,5.0,95,0.00,,,0.00,weatherlink.com 1.10,2013-10-15 12:04:00,
2013-10-15 08:20:00,59.4,58.0,30.10,NNW,332,1.0,5.0,95,0.00,,,0.00,weatherlink.com 1.10,2013-10-15 12:20:00,
2013-10-15 08:36:00,59.4,58.0,30.10,NE,39,2.0,7.0,94,0.00,,,0.00,weatherlink.com 1.10,2013-10-15 12:36:00,
2013-10-15 08:52:00,59.9,58.0,30.11,SE,130,2.0,7.0,93,0.00,,,0.00,weatherlink.com 1.10,2013-10-15 12:52:00,
2013-10-15 09:00:00,61.2,57.9,30.12,ESE,114,2.0,7.0,89,0.00,,---,0.00,VWS V14.01,2013-10-15 13:00:00,
2013-10-15 09:10:00,60.9,58.0,30.12,NNE,25,3.0,7.0,91,0.00,,,0.00,weatherlink.com 1.10,2013-10-15 13:10:00,
2013-10-15 09:26:00,60.9,58.0,30.11,NNE,13,4.0,7.0,91,0.00,,,0.00,weatherlink.com 1.10,2013-10-15 13:26:00,
2013-10-15 09:42:00,61.2,58.0,30.12,ENE,78,3.0,7.0,90,0.00,,,0.00,weatherlink.com 1.10,2013-10-15 13:42:00,
2013-10-15 09:58:00,61.9,59.0,30.12,East,92,3.0,6.0,89,0.00,,,0.00,weatherlink.com 1.10,2013-10-15 13:58:00,
2013-10-15 10:00:00,64.1,58.2,30.10,ESE,121,2.0,10.0,81,0.00,,---,0.00,VWS V14.01,2013-10-15 14:00:00,
2013-10-15 10:15:00,62.4,58.0,30.11,NE,42,3.0,11.0,86,0.00,,,0.00,weatherlink.com 1.10,2013-10-15 14:15:00,
2013-10-15 10:31:00,62.7,58.0,30.11,ENE,63,2.0,10.0,85,0.00,,,0.00,weatherlink.com 1.10,2013-10-15 14:31:00,
2013-10-15 10:48:00,62.9,58.0,30.11,East,79,1.0,6.0,85,0.00,,,0.00,weatherlink.com 1.10,2013-10-15 14:48:00,
2013-10-15 11:00:00,64.1,58.2,30.10,ESE,121,2.0,10.0,81,0.00,,---,0.00,VWS V14.01,2013-10-15 15:00:00,
2013-10-15 11:04:00,63.6,59.0,30.12,East,98,2.0,5.0,84,0.00,,,0.00,weatherlink.com 1.10,2013-10-15 15:04:00,
2013-10-15 11:21:00,64.1,59.0,30.11,East,85,6.0,8.0,82,0.00,,,0.00,weatherlink.com 1.10,2013-10-15 15:21:00,
2013-10-15 11:37:00,64.1,59.0,30.10,SE,140,5.0,7.0,82,0.00,,,0.00,weatherlink.com 1.10,2013-10-15 15:37:00,
2013-10-15 11:53:00,63.9,58.0,30.10,SE,143,3.0,9.0,81,0.00,,,0.00,weatherlink.com 1.10,2013-10-15 15:53:00,
2013-10-15 12:00:00,64.1,57.5,30.07,SE,140,0.0,8.0,79,0.00,,---,0.00,VWS V14.01,2013-10-15 16:00:00,
2013-10-15 12:10:00,64.3,57.0,30.10,East,91,3.0,6.0,78,0.00,,,0.00,weatherlink.com 1.10,2013-10-15 16:10:00,
2013-10-15 12:26:00,64.4,58.0,30.10,ENE,59,3.0,7.0,79,0.00,,,0.00,weatherlink.com 1.10,2013-10-15 16:26:00,
2013-10-15 12:43:00,64.0,58.0,30.09,East,92,6.0,8.0,80,0.00,,,0.00,weatherlink.com 1.10,2013-10-15 16:43:00,
2013-10-15 12:59:00,64.0,58.0,30.08,ENE,63,0.0,8.0,80,0.00,,,0.00,weatherlink.com 1.10,2013-10-15 16:59:00,
2013-10-15 13:00:00,64.1,57.5,30.07,SE,140,0.0,8.0,79,0.00,,---,0.00,VWS V14.01,2013-10-15 17:00:00,
2013-10-15 13:15:00,64.4,58.0,30.08,SE,129,4.0,7.0,79,0.00,,,0.00,weatherlink.com 1.10,2013-10-15 17:15:00,
2013-10-15 13:31:00,64.2,58.0,30.08,ENE,59,1.0,7.0,79,0.00,,,0.00,weatherlink.com 1.10,2013-10-15 17:31:00,
2013-10-15 13:49:00,64.1,58.0,30.07,ENE,57,1.0,5.0,80,0.00,,,0.00,weatherlink.com 1.10,2013-10-15 17:49:00,
2013-10-15 14:00:00,64.2,58.3,30.04,NNE,31,0.0,8.0,81,0.00,,---,0.00,VWS V14.01,2013-10-15 18:00:00,
2013-10-15 14:05:00,63.9,58.0,30.06,NNE,26,5.0,8.0,80,0.00,,,0.00,weatherlink.com 1.10,2013-10-15 18:05:00,
2013-10-15 14:22:00,63.9,58.0,30.05,ENE,71,2.0,6.0,81,0.00,,,0.00,weatherlink.com 1.10,2013-10-15 18:22:00,
2013-10-15 14:38:00,64.2,58.0,30.04,ENE,74,2.0,6.0,81,0.00,,,0.00,weatherlink.com 1.10,2013-10-15 18:38:00,
2013-10-15 14:55:00,64.2,58.0,30.04,NE,40,1.0,6.0,80,0.00,,,0.00,weatherlink.com 1.10,2013-10-15 18:55:00,
2013-10-15 15:00:00,64.2,58.3,30.04,NNE,31,0.0,8.0,81,0.00,,---,0.00,VWS V14.01,2013-10-15 19:00:00,
2013-10-15 15:11:00,63.7,58.0,30.04,SE,142,3.0,6.0,81,0.00,,,0.00,weatherlink.com 1.10,2013-10-15 19:11:00,
2013-10-15 15:28:00,64.0,58.0,30.04,NNE,28,3.0,6.0,80,0.00,,,0.00,weatherlink.com 1.10,2013-10-15 19:28:00,
2013-10-15 15:43:00,64.2,58.0,30.04,NNE,30,0.0,4.0,81,0.00,,,0.00,weatherlink.com 1.10,2013-10-15 19:43:00,
2013-10-15 16:00:00,64.3,58.0,30.04,NNE,15,2.0,5.0,79,0.00,,,0.00,weatherlink.com 1.10,2013-10-15 20:00:00,
2013-10-15 16:17:00,64.1,58.0,30.04,NE,51,2.0,3.0,81,0.00,,,0.00,weatherlink.com 1.10,2013-10-15 20:17:00,
2013-10-15 16:33:00,64.0,58.0,30.03,ESE,111,2.0,6.0,82,0.00,,,0.00,weatherlink.com 1.10,2013-10-15 20:33:00,
2013-10-15 16:49:00,64.0,58.0,30.03,ENE,65,3.0,4.0,82,0.00,,,0.00,weatherlink.com 1.10,2013-10-15 20:49:00,
2013-10-15 17:00:00,63.8,57.9,30.03,NNE,17,2.0,5.0,81,0.00,,---,0.00,VWS V14.01,2013-10-15 21:00:00,
2013-10-15 17:06:00,64.0,58.0,30.03,NE,44,3.0,3.0,82,0.00,,,0.00,weatherlink.com 1.10,2013-10-15 21:06:00,
2013-10-15 17:22:00,63.8,59.0,30.03,NNE,21,0.0,4.0,83,0.00,,,0.00,weatherlink.com 1.10,2013-10-15 21:22:00,
2013-10-15 17:39:00,63.8,58.0,30.03,North,5,1.0,2.0,81,0.00,,,0.00,weatherlink.com 1.10,2013-10-15 21:39:00,
2013-10-15 17:55:00,63.7,58.0,30.03,NNE,17,0.0,1.0,82,0.00,,,0.00,weatherlink.com 1.10,2013-10-15 21:55:00,
2013-10-15 18:00:00,62.9,58.3,30.03,NE,53,0.0,6.0,85,0.00,,---,0.00,VWS V14.01,2013-10-15 22:00:00,
2013-10-15 18:11:00,63.7,59.0,30.02,NNE,17,0.0,0.0,83,0.00,,,0.00,weatherlink.com 1.10,2013-10-15 22:11:00,
2013-10-15 18:27:00,63.7,59.0,30.02,ENE,75,0.0,2.0,84,0.00,,,0.00,weatherlink.com 1.10,2013-10-15 22:27:00,
2013-10-15 18:44:00,63.5,58.0,30.03,NE,53,1.0,6.0,83,0.00,,,0.00,weatherlink.com 1.10,2013-10-15 22:44:00,
2013-10-15 19:00:00,62.9,58.3,30.03,NE,53,0.0,6.0,85,0.00,,---,0.00,VWS V14.01,2013-10-15 23:00:00,
2013-10-15 19:01:00,63.3,58.0,30.02,East,93,1.0,2.0,83,0.00,,,0.00,weatherlink.com 1.10,2013-10-15 23:01:00,
2013-10-15 19:17:00,63.2,58.0,30.03,ENE,74,0.0,3.0,84,0.00,,,0.00,weatherlink.com 1.10,2013-10-15 23:17:00,
2013-10-15 19:33:00,63.0,59.0,30.03,NE,49,0.0,2.0,85,0.00,,,0.00,weatherlink.com 1.10,2013-10-15 23:33:00,
2013-10-15 19:49:00,62.9,59.0,30.03,NE,54,0.0,1.0,86,0.00,,,0.00,weatherlink.com 1.10,2013-10-15 23:49:00,
2013-10-15 20:00:00,62.6,58.7,30.05,NE,38,0.0,2.0,87,0.00,,---,0.00,VWS V14.01,2013-10-16 00:00:00,
2013-10-15 20:07:00,62.8,59.0,30.04,NE,37,0.0,1.0,86,0.00,,,0.00,weatherlink.com 1.10,2013-10-16 00:07:00,
2013-10-15 20:23:00,62.7,59.0,30.04,NE,37,0.0,1.0,86,0.00,,,0.00,weatherlink.com 1.10,2013-10-16 00:23:00,
2013-10-15 20:39:00,62.7,59.0,30.04,NE,38,0.0,0.0,86,0.00,,,0.00,weatherlink.com 1.10,2013-10-16 00:39:00,
2013-10-15 20:56:00,62.7,59.0,30.05,NE,37,0.0,0.0,86,0.00,,,0.00,weatherlink.com 1.10,2013-10-16 00:56:00,
2013-10-15 21:00:00,62.6,58.7,30.05,NE,38,0.0,2.0,87,0.00,,---,0.00,VWS V14.01,2013-10-16 01:00:00,
2013-10-15 21:12:00,62.7,59.0,30.05,NE,37,0.0,0.0,86,0.00,,,0.00,weatherlink.com 1.10,2013-10-16 01:12:00,
2013-10-15 21:28:00,62.7,59.0,30.05,NE,37,0.0,0.0,87,0.00,,,0.00,weatherlink.com 1.10,2013-10-16 01:28:00,
2013-10-15 21:44:00,62.6,59.0,30.05,NE,37,0.0,0.0,87,0.00,,,0.00,weatherlink.com 1.10,2013-10-16 01:44:00,
2013-10-15 22:00:00,62.1,58.5,30.04,NE,36,0.0,0.0,88,0.00,,---,0.00,VWS V14.01,2013-10-16 02:00:00,
2013-10-15 22:01:00,62.6,59.0,30.05,NE,37,0.0,0.0,87,0.00,,,0.00,weatherlink.com 1.10,2013-10-16 02:01:00,
2013-10-15 22:18:00,62.6,58.0,30.05,NE,36,0.0,0.0,86,0.00,,,0.00,weatherlink.com 1.10,2013-10-16 02:18:00,
2013-10-15 22:34:00,62.6,58.0,30.05,NE,36,0.0,0.0,86,0.00,,,0.00,weatherlink.com 1.10,2013-10-16 02:34:00,
2013-10-15 22:50:00,62.6,59.0,30.05,NE,36,0.0,0.0,87,0.00,,,0.00,weatherlink.com 1.10,2013-10-16 02:50:00,
2013-10-15 23:00:00,62.1,58.5,30.04,NE,36,0.0,0.0,88,0.00,,---,0.00,VWS V14.01,2013-10-16 03:00:00,
2013-10-15 23:06:00,62.6,59.0,30.05,NE,36,0.0,0.0,87,0.00,,,0.00,weatherlink.com 1.10,2013-10-16 03:06:00,
2013-10-15 23:24:00,62.4,59.0,30.04,NE,36,0.0,0.0,87,0.00,,,0.00,weatherlink.com 1.10,2013-10-16 03:24:00,
2013-10-15 23:40:00,62.2,58.0,30.04,NE,36,0.0,0.0,87,0.00,,,0.00,weatherlink.com 1.10,2013-10-16 03:40:00,
2013-10-15 23:56:00,61.5,58.0,30.04,NE,36,0.0,0.0,89,0.00,,,0.00,weatherlink.com 1.10,2013-10-16 03:56:00,